createdAt,value
2018-06-28T00:00:10.110Z,14.60
2018-06-28T00:02:38.236Z,14.00
2018-06-28T00:05:06.323Z,15.28
2018-06-28T00:07:34.347Z,15.75
2018-06-28T00:10:02.263Z,16.15
2018-06-28T00:12:30.415Z,15.38
2018-06-28T00:14:58.488Z,14.87
2018-06-28T00:17:26.484Z,15.75
2018-06-28T00:19:54.516Z,16.40
2018-06-28T00:22:22.524Z,16.73
2018-06-28T00:24:50.658Z,17.60
2018-06-28T00:27:18.722Z,19.95
2018-06-28T00:29:46.832Z,15.80
2018-06-28T00:32:14.817Z,16.42
2018-06-28T00:34:42.916Z,17.60
2018-06-28T00:37:11.067Z,19.20
2018-06-28T00:39:39.100Z,21.20
2018-06-28T00:42:07.208Z,21.17
2018-06-28T00:44:35.289Z,22.17
2018-06-28T00:47:03.349Z,21.00
2018-06-28T00:49:31.375Z,20.23
2018-06-28T00:51:59.546Z,23.45
2018-06-28T00:54:27.543Z,22.25
2018-06-28T00:56:55.688Z,21.33
2018-06-28T00:59:23.827Z,16.75
2018-06-28T01:01:52.119Z,14.90
2018-06-28T01:04:20.202Z,12.98
2018-06-28T01:06:48.276Z,13.13
2018-06-28T01:09:16.241Z,12.20
2018-06-28T01:11:44.305Z,12.63
2018-06-28T01:14:13.315Z,12.78
2018-06-28T01:16:41.355Z,14.05
2018-06-28T01:19:09.509Z,15.55
2018-06-28T01:21:37.627Z,12.37
2018-06-28T01:24:05.729Z,13.03
2018-06-28T01:26:33.981Z,14.40
2018-06-28T01:29:02.058Z,16.30
2018-06-28T01:31:30.232Z,15.78
2018-06-28T01:33:58.208Z,15.45
2018-06-28T01:36:26.178Z,16.95
2018-06-28T01:38:54.379Z,15.58
2018-06-28T01:41:22.444Z,16.10
2018-06-28T01:43:50.520Z,16.17
2018-06-28T01:46:18.962Z,15.38
2018-06-28T01:48:47.196Z,16.90
2018-06-28T01:51:15.274Z,14.90
2018-06-28T01:53:43.340Z,15.53
2018-06-28T01:56:11.389Z,17.50
2018-06-28T01:58:39.534Z,16.42
2018-06-28T02:01:07.792Z,15.25
2018-06-28T02:03:36.136Z,16.00
2018-06-28T02:06:04.142Z,16.02
2018-06-28T02:08:32.118Z,16.97
2018-06-28T02:11:00.157Z,16.87
2018-06-28T02:13:28.149Z,14.95
2018-06-28T02:15:57.304Z,16.55
2018-06-28T02:18:25.376Z,17.25
2018-06-28T02:20:53.325Z,16.75
2018-06-28T02:23:22.225Z,19.35
2018-06-28T02:25:50.199Z,17.42
2018-06-28T02:28:18.137Z,16.55
2018-06-28T02:30:46.139Z,15.13
2018-06-28T02:33:14.101Z,15.93
2018-06-28T02:35:42.523Z,19.77
2018-06-28T02:38:10.652Z,18.70
2018-06-28T02:40:38.581Z,17.07
2018-06-28T02:43:06.550Z,19.05
2018-06-28T02:45:34.459Z,17.60
2018-06-28T02:48:02.588Z,17.92
2018-06-28T02:50:30.544Z,12.30
2018-06-28T02:52:58.580Z,12.28
2018-06-28T02:55:26.520Z,14.15
2018-06-28T02:57:54.556Z,15.20
2018-06-28T03:00:22.554Z,16.25
2018-06-28T03:02:50.525Z,16.23
2018-06-28T03:05:19.060Z,16.52
2018-06-28T03:07:47.777Z,15.53
2018-06-28T03:10:15.860Z,15.53
2018-06-28T03:12:43.821Z,13.43
2018-06-28T03:15:11.820Z,15.88
2018-06-28T03:17:40.287Z,17.57
2018-06-28T03:20:08.245Z,16.70
2018-06-28T03:22:36.240Z,14.60
2018-06-28T03:25:04.218Z,13.80
2018-06-28T03:27:32.188Z,14.20
2018-06-28T03:30:00.238Z,13.88
2018-06-28T03:32:28.212Z,15.20
2018-06-28T03:34:56.199Z,10.03
2018-06-28T03:37:24.200Z,10.05
2018-06-28T03:39:52.320Z,9.63
2018-06-28T03:42:25.285Z,9.28
2018-06-28T03:44:53.279Z,7.10
2018-06-28T03:47:21.291Z,7.78
2018-06-28T03:49:49.241Z,8.00
2018-06-28T03:52:17.231Z,6.70
2018-06-28T03:54:45.117Z,6.25
2018-06-28T03:57:13.429Z,5.70
2018-06-28T03:59:41.423Z,9.40
2018-06-28T04:02:09.438Z,6.87
2018-06-28T04:04:37.449Z,8.40
2018-06-28T04:07:05.474Z,7.35
2018-06-28T04:09:33.576Z,6.62
2018-06-28T04:12:01.562Z,6.28
2018-06-28T04:14:29.539Z,5.35
2018-06-28T04:16:57.485Z,4.33
2018-06-28T04:19:25.491Z,4.90
2018-06-28T04:21:53.485Z,4.80
2018-06-28T04:24:21.418Z,4.37
2018-06-28T04:26:50.422Z,4.00
2018-06-28T04:29:18.468Z,4.53
2018-06-28T04:31:46.507Z,4.08
2018-06-28T04:34:14.454Z,3.80
2018-06-28T04:36:42.506Z,4.22
2018-06-28T04:39:12.612Z,4.42
2018-06-28T04:41:40.616Z,4.83
2018-06-28T04:44:08.700Z,4.65
2018-06-28T04:46:36.658Z,5.12
2018-06-28T04:49:04.627Z,4.60
2018-06-28T04:51:32.578Z,5.00
2018-06-28T04:54:00.546Z,4.78
2018-06-28T04:56:28.459Z,4.80
2018-06-28T04:58:56.424Z,4.67
2018-06-28T05:01:24.503Z,4.00
2018-06-28T05:03:52.621Z,4.17
2018-06-28T05:06:21.017Z,4.50
2018-06-28T05:08:49.167Z,4.33
2018-06-28T05:11:17.054Z,3.65
2018-06-28T05:13:45.028Z,3.80
2018-06-28T05:16:13.066Z,3.75
2018-06-28T05:18:41.166Z,3.85
2018-06-28T05:21:09.112Z,3.83
2018-06-28T05:23:37.306Z,3.80
2018-06-28T05:26:05.488Z,3.60
2018-06-28T05:28:33.481Z,3.60
2018-06-28T05:31:01.445Z,3.85
2018-06-28T05:33:29.445Z,3.70
2018-06-28T05:35:58.021Z,3.45
2018-06-28T05:38:26.003Z,3.72
2018-06-28T05:40:54.019Z,3.85
2018-06-28T05:43:22.038Z,4.00
2018-06-28T05:45:50.114Z,4.00
2018-06-28T05:48:18.138Z,4.17
2018-06-28T05:50:46.164Z,3.62
2018-06-28T05:53:14.184Z,3.90
2018-06-28T05:55:42.363Z,3.62
2018-06-28T05:58:10.542Z,4.50
2018-06-28T06:00:38.612Z,4.90
2018-06-28T06:03:06.699Z,14.50
2018-06-28T06:05:34.679Z,7.30
2018-06-28T06:08:03.275Z,10.75
2018-06-28T06:10:31.294Z,8.63
2018-06-28T06:13:00.682Z,8.00
2018-06-28T06:15:28.675Z,11.03
2018-06-28T06:17:56.780Z,5.50
2018-06-28T06:20:25.074Z,4.83
2018-06-28T06:22:53.514Z,5.00
2018-06-28T06:25:21.591Z,5.20
2018-06-28T06:27:49.583Z,5.05
2018-06-28T06:30:17.524Z,5.12
2018-06-28T06:32:45.576Z,5.85
2018-06-28T06:35:14.603Z,4.65
2018-06-28T06:37:42.720Z,4.45
2018-06-28T06:40:10.740Z,4.40
2018-06-28T06:42:38.745Z,4.70
2018-06-28T06:45:07.684Z,5.10
2018-06-28T06:47:35.659Z,5.28
2018-06-28T06:50:03.776Z,4.50
2018-06-28T06:52:31.824Z,4.60
2018-06-28T06:54:59.984Z,4.60
2018-06-28T06:57:27.989Z,5.55
2018-06-28T06:59:56.167Z,3.83
2018-06-28T07:02:24.330Z,3.92
2018-06-28T07:04:52.360Z,4.25
2018-06-28T07:07:20.357Z,3.85
2018-06-28T07:09:48.409Z,3.45
2018-06-28T07:12:16.613Z,3.90
2018-06-28T07:14:44.578Z,4.30
2018-06-28T07:17:12.669Z,4.30
2018-06-28T07:19:40.651Z,4.62
2018-06-28T07:22:08.746Z,4.30
2018-06-28T07:24:36.786Z,4.40
2018-06-28T07:27:05.060Z,4.40
2018-06-28T07:29:33.062Z,4.42
2018-06-28T07:32:02.190Z,4.67
2018-06-28T07:34:30.325Z,4.50
2018-06-28T07:36:58.312Z,4.50
2018-06-28T07:39:28.024Z,4.42
2018-06-28T07:41:56.048Z,4.60
2018-06-28T07:44:24.006Z,4.47
2018-06-28T07:46:52.533Z,4.40
2018-06-28T07:49:20.710Z,4.60
2018-06-28T07:51:48.651Z,4.08
2018-06-28T07:54:17.703Z,4.12
2018-06-28T07:56:45.905Z,4.30
2018-06-28T07:59:13.836Z,4.05
2018-06-28T08:01:41.846Z,4.05
2018-06-28T08:04:09.906Z,4.60
2018-06-28T08:06:38.147Z,4.12
2018-06-28T08:09:07.352Z,4.45
2018-06-28T08:11:35.353Z,4.20
2018-06-28T08:14:03.420Z,3.98
2018-06-28T08:16:34.768Z,4.22
2018-06-28T08:19:02.692Z,5.35
2018-06-28T08:21:30.774Z,4.50
2018-06-28T08:23:58.778Z,4.42
2018-06-28T08:26:26.823Z,6.78
2018-06-28T08:28:54.811Z,4.03
2018-06-28T08:31:22.898Z,4.20
2018-06-28T08:33:51.252Z,4.00
2018-06-28T08:36:20.279Z,3.83
2018-06-28T08:38:48.217Z,3.90
2018-06-28T08:41:16.453Z,3.40
2018-06-28T08:43:45.409Z,4.37
2018-06-28T08:46:13.443Z,4.65
2018-06-28T08:48:41.479Z,3.20
2018-06-28T08:51:09.446Z,3.33
2018-06-28T08:53:37.404Z,3.90
2018-06-28T08:56:05.540Z,3.47
2018-06-28T08:58:33.931Z,3.50
2018-06-28T09:01:01.896Z,3.70
2018-06-28T09:03:29.933Z,4.00
2018-06-28T09:05:58.528Z,3.50
2018-06-28T09:08:26.653Z,3.37
2018-06-28T09:10:54.715Z,4.30
2018-06-28T09:13:22.810Z,4.83
2018-06-28T09:15:51.142Z,4.05
2018-06-28T09:18:19.152Z,3.50
2018-06-28T09:20:47.179Z,3.75
2018-06-28T09:23:15.365Z,3.45
2018-06-28T09:25:43.843Z,3.60
2018-06-28T09:28:12.266Z,3.42
2018-06-28T09:30:40.270Z,4.65
2018-06-28T09:33:08.359Z,5.70
2018-06-28T09:35:36.307Z,4.47
2018-06-28T09:38:04.263Z,6.17
2018-06-28T09:40:32.359Z,4.70
2018-06-28T09:43:00.708Z,4.10
2018-06-28T09:45:28.977Z,4.70
2018-06-28T09:47:57.172Z,4.12
2018-06-28T09:50:25.211Z,4.70
2018-06-28T09:52:53.476Z,4.40
2018-06-28T09:55:21.800Z,5.03
2018-06-28T09:57:50.076Z,4.80
2018-06-28T10:00:22.530Z,4.65
2018-06-28T10:02:50.608Z,4.30
2018-06-28T10:05:18.600Z,5.08
2018-06-28T10:07:55.419Z,5.90
2018-06-28T10:10:23.454Z,10.90
2018-06-28T10:12:51.501Z,7.70
2018-06-28T10:15:19.501Z,7.55
2018-06-28T10:17:47.482Z,6.95
2018-06-28T10:20:15.530Z,6.90
2018-06-28T10:22:43.719Z,6.90
2018-06-28T10:25:11.673Z,7.33
2018-06-28T10:27:39.649Z,9.73
2018-06-28T10:30:07.695Z,9.03
2018-06-28T10:32:36.119Z,9.43
2018-06-28T10:35:04.168Z,10.03
2018-06-28T10:37:32.707Z,9.78
2018-06-28T10:40:00.843Z,9.88
2018-06-28T10:42:29.068Z,9.55
2018-06-28T10:44:57.098Z,9.78
2018-06-28T10:47:25.191Z,9.45
2018-06-28T10:49:53.186Z,9.63
2018-06-28T10:52:21.258Z,10.95
2018-06-28T10:54:49.185Z,11.18
2018-06-28T10:57:17.224Z,12.47
2018-06-28T10:59:45.179Z,10.18
2018-06-28T11:02:13.172Z,10.10
2018-06-28T11:04:41.116Z,11.78
2018-06-28T11:07:09.047Z,9.58
2018-06-28T11:09:38.265Z,11.15
2018-06-28T11:12:06.365Z,9.60
2018-06-28T11:14:34.690Z,9.00
2018-06-28T11:17:02.653Z,8.43
2018-06-28T11:19:30.801Z,9.68
2018-06-28T11:21:58.768Z,8.75
2018-06-28T11:24:27.487Z,9.83
2018-06-28T11:26:55.593Z,10.05
2018-06-28T11:29:24.176Z,10.23
2018-06-28T11:31:52.837Z,9.10
2018-06-28T11:34:21.908Z,9.28
2018-06-28T11:36:50.442Z,11.97
2018-06-28T11:39:18.447Z,12.07
2018-06-28T11:41:46.715Z,12.53
2018-06-28T11:44:14.820Z,11.48
2018-06-28T11:46:43.403Z,11.12
2018-06-28T11:49:11.408Z,10.55
2018-06-28T11:51:39.958Z,8.93
2018-06-28T11:54:08.180Z,10.10
2018-06-28T11:56:36.352Z,10.82
2018-06-28T11:59:04.319Z,10.50
2018-06-28T12:01:32.678Z,10.32
2018-06-28T12:04:00.831Z,9.53
2018-06-28T12:06:28.846Z,10.05
2018-06-28T12:08:57.091Z,10.88
2018-06-28T12:11:26.328Z,10.82
2018-06-28T12:13:54.551Z,9.68
2018-06-28T12:16:23.240Z,10.72
2018-06-28T12:18:51.884Z,10.35
2018-06-28T12:21:20.036Z,10.48
2018-06-28T12:23:48.228Z,10.28
2018-06-28T12:26:17.217Z,10.05
2018-06-28T12:28:45.195Z,10.32
2018-06-28T12:31:13.147Z,9.58
2018-06-28T12:33:41.384Z,9.90
2018-06-28T12:36:11.908Z,18.32
2018-06-28T12:38:40.063Z,13.28
2018-06-28T12:41:08.500Z,10.40
2018-06-28T12:43:37.147Z,9.93
2018-06-28T12:46:05.284Z,9.48
2018-06-28T12:48:33.561Z,10.60
2018-06-28T12:51:01.583Z,10.70
2018-06-28T12:53:29.579Z,10.98
2018-06-28T12:56:31.610Z,9.63
2018-06-28T12:59:01.048Z,9.63
2018-06-28T13:01:29.560Z,8.73
2018-06-28T13:03:59.203Z,8.55
2018-06-28T13:06:27.334Z,8.13
2018-06-28T13:08:55.917Z,8.40
2018-06-28T13:11:24.659Z,8.40
2018-06-28T13:13:53.305Z,7.58
2018-06-28T13:16:22.306Z,8.80
2018-06-28T13:18:50.318Z,10.10
2018-06-28T13:21:18.259Z,8.35
2018-06-28T13:23:46.345Z,7.95
2018-06-28T13:26:15.471Z,7.12
2018-06-28T13:28:44.723Z,6.47
2018-06-28T13:31:12.919Z,6.97
2018-06-28T13:33:40.971Z,6.80
2018-06-28T13:36:09.079Z,7.10
2018-06-28T13:38:37.952Z,7.42
2018-06-28T13:41:06.277Z,7.45
2018-06-28T13:43:34.130Z,7.42
2018-06-28T13:46:02.316Z,8.45
2018-06-28T13:48:30.568Z,6.78
2018-06-28T13:50:58.540Z,6.90
2018-06-28T13:53:26.522Z,6.42
2018-06-28T13:55:56.562Z,7.37
2018-06-28T13:58:24.670Z,5.53
2018-06-28T14:00:52.749Z,4.50
2018-06-28T14:03:20.969Z,4.53
2018-06-28T14:05:49.011Z,4.20
2018-06-28T14:08:16.959Z,4.30
2018-06-28T14:10:45.899Z,4.95
2018-06-28T14:13:13.928Z,5.50
2018-06-28T14:15:42.502Z,5.78
2018-06-28T14:18:11.055Z,5.87
2018-06-28T14:20:39.087Z,5.80
2018-06-28T14:23:07.604Z,7.67
2018-06-28T14:25:37.774Z,8.08
2018-06-28T14:28:05.772Z,7.60
2018-06-28T14:30:33.833Z,8.53
2018-06-28T14:33:02.238Z,8.98
2018-06-28T14:35:30.708Z,9.85
2018-06-28T14:37:58.705Z,11.85
2018-06-28T14:40:27.077Z,11.68
2018-06-28T14:42:55.050Z,10.40
2018-06-28T14:45:23.023Z,9.40
2018-06-28T14:47:51.356Z,6.85
2018-06-28T14:50:19.385Z,6.28
2018-06-28T14:52:47.380Z,6.17
2018-06-28T14:55:15.429Z,4.70
2018-06-28T14:57:43.480Z,2.90
2018-06-28T15:00:17.060Z,2.80
2018-06-28T15:02:45.119Z,2.70
2018-06-28T15:05:13.712Z,2.92
2018-06-28T15:07:41.922Z,2.90
2018-06-28T15:10:09.902Z,3.20
2018-06-28T15:12:37.880Z,4.80
2018-06-28T15:15:06.581Z,4.00
2018-06-28T15:17:34.588Z,3.20
2018-06-28T15:20:02.634Z,3.47
2018-06-28T15:22:30.631Z,3.30
2018-06-28T15:24:58.668Z,2.98
2018-06-28T15:27:26.647Z,3.58
2018-06-28T15:29:54.873Z,3.40
2018-06-28T15:32:22.909Z,3.10
2018-06-28T15:34:50.900Z,4.15
2018-06-28T15:37:18.878Z,5.20
2018-06-28T15:39:46.755Z,4.60
2018-06-28T15:42:17.350Z,4.17
2018-06-28T15:44:45.863Z,4.62
2018-06-28T15:47:13.839Z,4.70
2018-06-28T15:49:42.118Z,5.80
2018-06-28T15:52:10.136Z,4.90
2018-06-28T15:54:38.231Z,4.80
2018-06-28T15:57:06.151Z,4.12
2018-06-28T15:59:34.217Z,4.15
2018-06-28T16:02:02.483Z,4.78
2018-06-28T16:04:30.462Z,5.20
2018-06-28T16:06:59.316Z,4.17
2018-06-28T16:09:27.619Z,4.90
2018-06-28T16:11:55.742Z,3.60
2018-06-28T16:14:23.787Z,3.85
2018-06-28T16:16:51.758Z,5.58
2018-06-28T16:19:20.624Z,6.05
2018-06-28T16:21:48.636Z,5.50
2018-06-28T16:24:17.243Z,5.35
2018-06-28T16:26:45.310Z,8.00
2018-06-28T16:29:13.333Z,5.83
2018-06-28T16:31:41.319Z,4.90
2018-06-28T16:34:09.379Z,4.45
2018-06-28T16:36:37.420Z,5.00
2018-06-28T16:39:09.399Z,6.28
2018-06-28T16:41:37.457Z,5.10
2018-06-28T16:44:05.898Z,4.92
2018-06-28T16:46:34.001Z,6.65
2018-06-28T16:49:02.076Z,7.72
2018-06-28T16:51:30.008Z,5.20
2018-06-28T16:53:58.080Z,8.15
2018-06-28T16:56:26.052Z,5.53
2018-06-28T16:58:54.152Z,4.62
2018-06-28T17:01:22.193Z,4.45
2018-06-28T17:03:50.252Z,4.10
2018-06-28T17:06:18.203Z,4.12
2018-06-28T17:08:46.463Z,4.00
2018-06-28T17:11:14.473Z,3.80
2018-06-28T17:13:42.493Z,4.67
2018-06-28T17:16:10.895Z,5.83
2018-06-28T17:18:39.248Z,5.05
2018-06-28T17:21:07.428Z,5.47
2018-06-28T17:23:35.830Z,5.30
2018-06-28T17:26:04.162Z,5.78
2018-06-28T17:28:32.320Z,5.40
2018-06-28T17:31:01.446Z,6.80
2018-06-28T17:33:29.453Z,9.45
2018-06-28T17:35:57.605Z,7.37
2018-06-28T17:38:25.683Z,8.90
2018-06-28T17:40:53.907Z,8.73
2018-06-28T17:43:22.268Z,8.50
2018-06-28T17:45:50.553Z,7.75
2018-06-28T17:48:18.873Z,7.08
2018-06-28T17:50:47.209Z,7.78
2018-06-28T17:53:15.375Z,7.62
2018-06-28T17:55:44.088Z,6.62
2018-06-28T17:58:12.627Z,6.60
2018-06-28T18:00:40.877Z,6.25
2018-06-28T18:03:09.484Z,5.53
2018-06-28T18:05:37.603Z,4.97
2018-06-28T18:08:05.892Z,5.10
2018-06-28T18:10:33.935Z,6.55
2018-06-28T18:13:02.107Z,7.12
2018-06-28T18:15:30.077Z,6.22
2018-06-28T18:17:58.103Z,7.28
2018-06-28T18:20:26.152Z,5.35
2018-06-28T18:22:54.126Z,5.65
2018-06-28T18:25:23.360Z,4.00
2018-06-28T18:27:52.371Z,5.75
2018-06-28T18:30:20.615Z,5.40
2018-06-28T18:32:48.752Z,4.87
2018-06-28T18:35:16.928Z,4.80
2018-06-28T18:37:45.966Z,5.15
2018-06-28T18:40:14.016Z,4.50
2018-06-28T18:42:42.081Z,4.70
2018-06-28T18:45:10.808Z,6.60
2018-06-28T18:47:38.850Z,8.75
2018-06-28T18:50:06.836Z,9.05
2018-06-28T18:52:34.867Z,5.40
2018-06-28T18:55:04.845Z,4.40
2018-06-28T18:57:34.600Z,5.00
2018-06-28T19:00:03.271Z,6.15
2018-06-28T19:02:32.198Z,6.12
2018-06-28T19:05:00.271Z,16.42
2018-06-28T19:07:28.317Z,22.30
2018-06-28T19:10:01.903Z,9.25
2018-06-28T19:12:29.798Z,6.45
2018-06-28T19:15:03.386Z,5.60
2018-06-28T19:17:32.337Z,5.62
2018-06-28T19:20:00.945Z,4.92
2018-06-28T19:22:34.454Z,5.42
2018-06-28T19:25:02.821Z,5.55
2018-06-28T19:27:30.784Z,5.10
2018-06-28T19:30:05.092Z,4.92
2018-06-28T19:32:34.957Z,5.35
2018-06-28T19:35:03.340Z,7.20
2018-06-28T19:37:36.664Z,18.35
2018-06-28T19:40:11.985Z,33.18
2018-06-28T19:42:46.057Z,8.60
2018-06-28T19:45:14.247Z,7.60
2018-06-28T19:47:42.827Z,7.10
2018-06-28T19:50:16.458Z,5.72
2018-06-28T19:52:49.843Z,4.92
2018-06-28T19:55:18.419Z,4.80
2018-06-28T19:57:46.425Z,4.58
2018-06-28T20:00:19.806Z,4.67
2018-06-28T20:02:53.252Z,4.35
2018-06-28T20:05:21.721Z,4.33
2018-06-28T20:07:50.054Z,5.92
2018-06-28T20:10:19.208Z,5.40
2018-06-28T20:12:53.353Z,7.62
2018-06-28T20:16:05.151Z,6.55
2018-06-28T20:18:39.473Z,4.95
2018-06-28T20:21:07.633Z,4.65
2018-06-28T20:23:36.133Z,4.62
2018-06-28T20:26:09.468Z,4.67
2018-06-28T20:28:43.499Z,4.97
2018-06-28T20:31:16.875Z,5.00
2018-06-28T20:33:50.334Z,7.83
2018-06-28T20:36:18.295Z,7.58
2018-06-28T20:38:46.218Z,3.72
2018-06-28T20:41:14.162Z,3.90
2018-06-28T20:43:42.092Z,4.62
2018-06-28T20:46:10.332Z,4.95
2018-06-28T20:48:38.251Z,3.72
2018-06-28T20:51:06.907Z,3.83
2018-06-28T20:53:34.888Z,3.75
2018-06-28T20:56:02.868Z,4.15
2018-06-28T20:58:30.809Z,4.30
2018-06-28T21:00:58.811Z,4.45
2018-06-28T21:03:27.202Z,4.10
2018-06-28T21:05:55.070Z,3.87
2018-06-28T21:08:22.978Z,4.00
2018-06-28T21:10:51.404Z,4.22
2018-06-28T21:13:19.331Z,4.53
2018-06-28T21:15:47.684Z,4.25
2018-06-28T21:18:15.585Z,4.80
2018-06-28T21:20:43.503Z,4.53
2018-06-28T21:23:11.707Z,4.33
2018-06-28T21:25:39.702Z,4.22
2018-06-28T21:28:07.750Z,4.50
2018-06-28T21:30:35.726Z,4.17
2018-06-28T21:33:03.641Z,4.22
2018-06-28T21:35:31.513Z,4.37
2018-06-28T21:38:04.042Z,4.65
2018-06-28T21:40:31.977Z,4.72
2018-06-28T21:42:59.953Z,5.40
2018-06-28T21:45:27.971Z,5.30
2018-06-28T21:47:55.992Z,5.30
2018-06-28T21:50:24.030Z,4.47
2018-06-28T21:52:52.044Z,5.10
2018-06-28T21:55:19.980Z,4.62
2018-06-28T21:57:47.955Z,4.87
2018-06-28T22:00:33.164Z,4.85
2018-06-28T22:03:03.210Z,5.35
2018-06-28T22:05:32.265Z,4.33
2018-06-28T22:08:00.593Z,4.53
2018-06-28T22:10:28.492Z,4.83
2018-06-28T22:12:56.703Z,4.67
2018-06-28T22:15:26.080Z,4.78
2018-06-28T22:17:57.148Z,4.83
2018-06-28T22:20:26.253Z,5.10
2018-06-28T22:22:54.453Z,5.40
2018-06-28T22:25:22.805Z,5.22
2018-06-28T22:27:50.718Z,5.35
2018-06-28T22:30:19.285Z,5.35
2018-06-28T22:32:47.153Z,5.30
2018-06-28T22:35:15.286Z,5.00
2018-06-28T22:37:43.453Z,5.60
2018-06-28T22:40:11.447Z,5.40
2018-06-28T22:42:39.646Z,5.53
2018-06-28T22:45:08.398Z,5.08
2018-06-28T22:47:36.379Z,5.42
2018-06-28T22:50:04.644Z,5.20
2018-06-28T22:52:33.640Z,5.37
2018-06-28T22:55:01.894Z,5.45
2018-06-28T22:57:29.922Z,5.28
2018-06-28T22:59:58.184Z,5.58
2018-06-28T23:02:26.080Z,5.37
2018-06-28T23:04:54.372Z,5.60
2018-06-28T23:07:22.542Z,6.10
2018-06-28T23:09:50.421Z,5.58
2018-06-28T23:12:18.432Z,5.50
2018-06-28T23:14:46.435Z,5.30
2018-06-28T23:17:14.334Z,4.75
2018-06-28T23:19:42.592Z,5.37
2018-06-28T23:22:46.694Z,4.72
2018-06-28T23:25:15.302Z,5.62
2018-06-28T23:27:43.985Z,5.47
2018-06-28T23:30:12.203Z,6.12
2018-06-28T23:32:40.735Z,5.35
2018-06-28T23:35:08.942Z,5.25
2018-06-28T23:37:37.530Z,5.90
2018-06-28T23:40:05.613Z,5.97
2018-06-28T23:42:34.034Z,6.08
2018-06-28T23:45:02.108Z,5.90
2018-06-28T23:47:30.054Z,5.78
2018-06-28T23:49:58.082Z,5.95
2018-06-28T23:52:25.989Z,6.05
2018-06-28T23:54:54.346Z,6.70
2018-06-28T23:57:22.243Z,6.85
2018-06-28T23:59:50.154Z,6.65
